createdAt,value
2018-10-06T00:01:41.584Z,8.30
2018-10-06T00:04:08.982Z,9.00
2018-10-06T00:06:36.279Z,9.05
2018-10-06T00:09:03.986Z,8.68
2018-10-06T00:11:31.233Z,8.63
2018-10-06T00:13:58.535Z,8.90
2018-10-06T00:16:25.831Z,9.00
2018-10-06T00:18:53.099Z,9.00
2018-10-06T00:21:20.385Z,7.75
2018-10-06T00:23:47.703Z,9.03
2018-10-06T00:26:15.100Z,7.37
2018-10-06T00:28:42.549Z,8.80
2018-10-06T00:31:09.923Z,7.53
2018-10-06T00:33:37.189Z,7.62
2018-10-06T00:36:04.488Z,7.80
2018-10-06T00:38:31.754Z,7.90
2018-10-06T00:40:59.009Z,8.83
2018-10-06T00:43:26.275Z,8.65
2018-10-06T00:45:53.532Z,8.20
2018-10-06T00:48:20.898Z,8.20
2018-10-06T00:50:48.358Z,8.10
2018-10-06T00:53:15.751Z,8.38
2018-10-06T00:55:43.109Z,7.35
2018-10-06T00:58:10.567Z,8.50
2018-10-06T01:00:38.810Z,9.48
2018-10-06T01:03:06.103Z,8.50
2018-10-06T01:05:33.352Z,8.35
2018-10-06T01:08:00.695Z,7.95
2018-10-06T01:10:28.037Z,8.00
2018-10-06T01:12:55.303Z,8.98
2018-10-06T01:15:22.659Z,8.60
2018-10-06T01:17:49.985Z,9.55
2018-10-06T01:20:17.445Z,8.35
2018-10-06T01:22:44.896Z,8.88
2018-10-06T01:25:12.372Z,8.10
2018-10-06T01:27:39.729Z,9.40
2018-10-06T01:30:07.026Z,8.28
2018-10-06T01:32:34.475Z,9.10
2018-10-06T01:35:01.763Z,8.93
2018-10-06T01:37:29.045Z,8.70
2018-10-06T01:39:56.295Z,7.80
2018-10-06T01:42:23.581Z,9.35
2018-10-06T01:44:50.897Z,9.30
2018-10-06T01:47:18.294Z,8.60
2018-10-06T01:49:45.808Z,9.50
2018-10-06T01:52:13.414Z,8.58
2018-10-06T01:54:40.899Z,8.85
2018-10-06T01:57:08.171Z,8.58
2018-10-06T01:59:35.434Z,8.60
2018-10-06T02:02:02.693Z,7.80
2018-10-06T02:04:29.995Z,9.48
2018-10-06T02:06:57.266Z,8.05
2018-10-06T02:09:24.590Z,8.33
2018-10-06T02:11:52.288Z,8.08
2018-10-06T02:14:19.658Z,8.35
2018-10-06T02:16:47.071Z,7.72
2018-10-06T02:19:14.545Z,7.85
2018-10-06T02:21:42.095Z,8.18
2018-10-06T02:24:09.504Z,9.18
2018-10-06T02:26:39.338Z,8.68
2018-10-06T02:29:06.624Z,9.78
2018-10-06T02:31:33.894Z,9.48
2018-10-06T02:34:01.867Z,10.05
2018-10-06T02:36:29.445Z,9.60
2018-10-06T02:38:56.762Z,9.00
2018-10-06T02:41:24.042Z,8.78
2018-10-06T02:43:51.367Z,8.55
2018-10-06T02:46:18.717Z,9.38
2018-10-06T02:48:46.064Z,9.38
2018-10-06T02:51:13.472Z,8.00
2018-10-06T02:53:41.514Z,8.20
2018-10-06T02:56:08.861Z,8.60
2018-10-06T02:58:36.734Z,8.93
2018-10-06T03:01:04.027Z,10.13
2018-10-06T03:03:31.277Z,8.80
2018-10-06T03:05:58.537Z,8.85
2018-10-06T03:08:25.854Z,9.50
2018-10-06T03:10:53.178Z,9.33
2018-10-06T03:13:20.517Z,8.70
2018-10-06T03:15:47.881Z,8.58
2018-10-06T03:18:15.245Z,8.75
2018-10-06T03:20:42.745Z,7.87
2018-10-06T03:23:10.185Z,8.95
2018-10-06T03:25:37.496Z,9.50
2018-10-06T03:28:04.769Z,8.70
2018-10-06T03:30:32.030Z,9.00
2018-10-06T03:32:59.329Z,9.58
2018-10-06T03:35:26.597Z,9.53
2018-10-06T03:37:53.866Z,8.60
2018-10-06T03:40:21.233Z,8.98
2018-10-06T03:42:48.597Z,9.65
2018-10-06T03:45:16.069Z,8.10
2018-10-06T03:47:43.535Z,9.60
2018-10-06T03:50:10.954Z,8.85
2018-10-06T03:52:38.265Z,9.05
2018-10-06T03:55:05.516Z,8.43
2018-10-06T03:57:32.825Z,9.60
2018-10-06T04:00:00.089Z,8.83
2018-10-06T04:02:27.497Z,8.40
2018-10-06T04:04:54.775Z,9.50
2018-10-06T04:07:22.186Z,9.25
2018-10-06T04:09:49.581Z,8.38
2018-10-06T04:12:16.953Z,9.68
2018-10-06T04:14:44.428Z,8.83
2018-10-06T04:17:11.914Z,8.15
2018-10-06T04:19:39.362Z,8.90
2018-10-06T04:22:06.675Z,9.28
2018-10-06T04:24:33.950Z,8.98
2018-10-06T04:27:01.246Z,9.93
2018-10-06T04:29:28.571Z,9.08
2018-10-06T04:31:55.874Z,10.65
2018-10-06T04:34:23.135Z,10.20
2018-10-06T04:36:50.554Z,8.05
2018-10-06T04:39:17.986Z,9.65
2018-10-06T04:41:45.407Z,9.70
2018-10-06T04:44:12.973Z,9.98
2018-10-06T04:46:40.731Z,8.93
2018-10-06T04:49:08.111Z,10.20
2018-10-06T04:51:35.470Z,10.63
2018-10-06T04:54:02.739Z,9.53
2018-10-06T04:56:29.991Z,9.95
2018-10-06T04:58:57.306Z,10.30
2018-10-06T05:01:24.574Z,10.50
2018-10-06T05:03:51.916Z,8.90
2018-10-06T05:06:19.402Z,9.23
2018-10-06T05:08:46.936Z,9.48
2018-10-06T05:11:14.451Z,11.55
2018-10-06T05:13:41.847Z,11.20
2018-10-06T05:16:09.148Z,10.35
2018-10-06T05:18:36.421Z,9.28
2018-10-06T05:21:03.705Z,10.88
2018-10-06T05:23:30.987Z,11.18
2018-10-06T05:25:58.268Z,9.98
2018-10-06T05:28:25.549Z,9.90
2018-10-06T05:30:52.859Z,10.40
2018-10-06T05:33:20.114Z,10.20
2018-10-06T05:35:47.561Z,10.88
2018-10-06T05:38:14.922Z,10.40
2018-10-06T05:40:42.209Z,9.98
2018-10-06T05:43:09.927Z,10.15
2018-10-06T05:45:37.199Z,9.73
2018-10-06T05:48:04.477Z,10.32
2018-10-06T05:50:31.748Z,11.15
2018-10-06T05:52:59.034Z,10.43
2018-10-06T05:55:26.295Z,11.38
2018-10-06T05:57:53.590Z,11.43
2018-10-06T06:00:20.879Z,12.63
2018-10-06T06:02:48.176Z,11.08
2018-10-06T06:05:15.720Z,11.83
2018-10-06T06:07:44.498Z,11.20
2018-10-06T06:10:12.472Z,11.10
2018-10-06T06:12:40.359Z,12.53
2018-10-06T06:15:07.950Z,10.63
2018-10-06T06:17:35.225Z,11.15
2018-10-06T06:20:02.531Z,10.50
2018-10-06T06:22:29.810Z,10.32
2018-10-06T06:24:57.263Z,13.43
2018-10-06T06:27:24.546Z,10.72
2018-10-06T06:29:51.949Z,12.45
2018-10-06T06:32:19.349Z,12.70
2018-10-06T06:34:46.589Z,11.65
2018-10-06T06:37:13.880Z,14.25
2018-10-06T06:39:41.229Z,11.75
2018-10-06T06:42:08.686Z,14.55
2018-10-06T06:44:36.060Z,12.33
2018-10-06T06:47:03.454Z,12.03
2018-10-06T06:49:30.722Z,13.48
2018-10-06T06:51:58.061Z,13.95
2018-10-06T06:54:25.345Z,14.55
2018-10-06T06:56:52.608Z,14.00
2018-10-06T06:59:21.143Z,14.93
2018-10-06T07:01:55.188Z,15.13
2018-10-06T07:04:24.586Z,18.98
2018-10-06T07:06:58.095Z,14.65
2018-10-06T07:09:41.859Z,16.55
2018-10-06T07:12:09.175Z,14.45
2018-10-06T07:14:36.478Z,14.55
2018-10-06T07:17:03.801Z,14.33
2018-10-06T07:19:31.159Z,13.60
2018-10-06T07:21:58.507Z,13.68
2018-10-06T07:24:25.782Z,13.78
2018-10-06T07:26:53.057Z,14.35
2018-10-06T07:29:20.382Z,13.03
2018-10-06T07:31:47.707Z,11.70
2018-10-06T07:34:15.011Z,12.60
2018-10-06T07:36:42.294Z,13.30
2018-10-06T07:39:09.694Z,14.40
2018-10-06T07:41:36.962Z,13.20
2018-10-06T07:44:04.236Z,13.33
2018-10-06T07:46:31.545Z,13.07
2018-10-06T07:48:58.825Z,13.20
2018-10-06T07:51:26.086Z,13.67
2018-10-06T07:53:53.363Z,13.13
2018-10-06T07:56:20.764Z,14.00
2018-10-06T07:58:48.013Z,12.77
2018-10-06T08:01:15.559Z,12.70
2018-10-06T08:03:42.942Z,12.70
2018-10-06T08:06:10.302Z,13.00
2018-10-06T08:08:37.598Z,12.23
2018-10-06T08:11:04.943Z,13.17
2018-10-06T08:13:32.529Z,12.53
2018-10-06T08:15:59.831Z,11.27
2018-10-06T08:18:27.150Z,11.10
2018-10-06T08:20:54.484Z,12.50
2018-10-06T08:23:21.841Z,12.10
2018-10-06T08:25:49.205Z,12.40
2018-10-06T08:28:16.590Z,11.60
2018-10-06T08:30:44.196Z,11.57
2018-10-06T08:33:11.635Z,11.00
2018-10-06T08:35:39.506Z,12.23
2018-10-06T08:38:06.906Z,11.73
2018-10-06T08:40:34.263Z,11.00
2018-10-06T08:43:01.678Z,11.90
2018-10-06T08:45:29.437Z,11.67
2018-10-06T08:47:57.161Z,10.33
2018-10-06T08:50:24.766Z,11.37
2018-10-06T08:52:52.803Z,11.30
2018-10-06T08:55:20.145Z,11.43
2018-10-06T08:57:47.536Z,11.53
2018-10-06T09:00:14.883Z,11.10
2018-10-06T09:02:42.683Z,11.40
2018-10-06T09:05:10.106Z,11.13
2018-10-06T09:07:37.551Z,10.47
2018-10-06T09:10:05.667Z,11.03
2018-10-06T09:12:33.050Z,11.70
2018-10-06T09:15:00.358Z,10.80
2018-10-06T09:17:27.717Z,11.17
2018-10-06T09:19:55.199Z,10.87
2018-10-06T09:22:22.914Z,10.57
2018-10-06T09:24:50.522Z,10.10
2018-10-06T09:27:18.239Z,10.17
2018-10-06T09:29:45.720Z,9.43
2018-10-06T09:32:13.046Z,9.03
2018-10-06T09:34:40.380Z,9.40
2018-10-06T09:37:07.928Z,9.60
2018-10-06T09:39:35.242Z,9.57
2018-10-06T09:42:03.014Z,9.40
2018-10-06T09:44:30.225Z,9.03
2018-10-06T09:46:57.552Z,9.27
2018-10-06T09:49:24.908Z,8.80
2018-10-06T09:51:52.276Z,8.53
2018-10-06T09:54:19.709Z,9.10
2018-10-06T09:56:47.060Z,9.03
2018-10-06T09:59:14.538Z,8.97
2018-10-06T10:01:47.633Z,8.93
2018-10-06T10:04:16.416Z,8.53
2018-10-06T10:06:43.933Z,9.10
2018-10-06T10:09:13.359Z,8.77
2018-10-06T10:11:40.822Z,7.07
2018-10-06T10:14:09.360Z,8.03
2018-10-06T10:16:36.744Z,7.80
2018-10-06T10:19:04.616Z,8.43
2018-10-06T10:21:31.952Z,8.00
2018-10-06T10:23:59.897Z,7.80
2018-10-06T10:26:27.213Z,7.70
2018-10-06T10:28:54.834Z,7.00
2018-10-06T10:31:22.486Z,8.70
2018-10-06T10:33:49.870Z,8.50
2018-10-06T10:36:17.454Z,7.47
2018-10-06T10:38:45.083Z,7.27
2018-10-06T10:41:12.757Z,8.37
2018-10-06T10:43:40.128Z,8.10
2018-10-06T10:46:07.531Z,7.50
2018-10-06T10:48:34.870Z,8.00
2018-10-06T10:51:02.251Z,8.20
2018-10-06T10:53:29.676Z,8.23
2018-10-06T10:55:57.047Z,8.10
2018-10-06T10:58:24.519Z,7.53
2018-10-06T11:00:52.120Z,7.60
2018-10-06T11:03:19.491Z,7.53
2018-10-06T11:05:46.929Z,7.00
2018-10-06T11:08:14.528Z,7.63
2018-10-06T11:10:41.971Z,7.60
2018-10-06T11:13:09.597Z,7.37
2018-10-06T11:15:37.180Z,7.43
2018-10-06T11:18:04.850Z,6.70
2018-10-06T11:20:32.479Z,6.37
2018-10-06T11:22:59.782Z,5.53
2018-10-06T11:25:27.335Z,5.70
2018-10-06T11:27:54.859Z,5.40
2018-10-06T11:30:22.255Z,5.57
2018-10-06T11:32:49.664Z,6.10
2018-10-06T11:35:17.026Z,5.50
2018-10-06T11:37:44.444Z,5.50
2018-10-06T11:40:12.168Z,5.63
2018-10-06T11:42:39.725Z,5.80
2018-10-06T11:45:07.363Z,5.47
2018-10-06T11:47:34.679Z,5.30
2018-10-06T11:50:02.067Z,5.47
2018-10-06T11:52:29.386Z,5.80
2018-10-06T11:54:57.082Z,5.50
2018-10-06T11:57:26.317Z,5.90
2018-10-06T11:59:55.365Z,5.60
2018-10-06T12:02:23.174Z,5.40
2018-10-06T12:04:50.723Z,5.23
2018-10-06T12:07:18.399Z,5.30
2018-10-06T12:09:45.938Z,5.20
2018-10-06T12:12:14.816Z,6.40
2018-10-06T12:14:43.996Z,5.30
2018-10-06T12:17:11.653Z,5.43
2018-10-06T12:19:39.010Z,5.67
2018-10-06T12:22:08.335Z,5.30
2018-10-06T12:24:37.672Z,5.60
2018-10-06T12:27:06.292Z,5.80
2018-10-06T12:29:33.884Z,5.00
2018-10-06T12:32:01.251Z,5.80
2018-10-06T12:34:31.300Z,5.13
2018-10-06T12:36:58.606Z,5.50
2018-10-06T12:39:25.946Z,7.00
2018-10-06T12:41:53.665Z,6.20
2018-10-06T12:44:25.235Z,5.73
2018-10-06T12:46:52.544Z,5.60
2018-10-06T12:49:19.834Z,5.50
2018-10-06T12:51:49.386Z,6.03
2018-10-06T12:54:17.031Z,6.80
2018-10-06T12:56:45.003Z,5.40
2018-10-06T12:59:12.284Z,5.53
2018-10-06T13:01:40.627Z,6.40
2018-10-06T13:04:08.074Z,6.17
2018-10-06T13:06:35.649Z,6.33
2018-10-06T13:09:03.598Z,5.47
2018-10-06T13:11:31.362Z,6.10
2018-10-06T13:13:59.549Z,5.90
2018-10-06T13:16:27.306Z,5.60
2018-10-06T13:18:56.704Z,5.47
2018-10-06T13:21:24.447Z,6.10
2018-10-06T13:23:51.828Z,5.67
2018-10-06T13:26:19.157Z,5.87
2018-10-06T13:28:46.466Z,6.33
2018-10-06T13:31:14.019Z,6.30
2018-10-06T13:33:41.743Z,6.07
2018-10-06T13:36:09.030Z,6.17
2018-10-06T13:38:36.302Z,5.40
2018-10-06T13:41:03.874Z,5.83
2018-10-06T13:43:31.159Z,6.00
2018-10-06T13:45:58.447Z,6.30
2018-10-06T13:48:25.970Z,6.03
2018-10-06T13:50:53.283Z,5.60
2018-10-06T13:53:20.558Z,5.93
2018-10-06T13:55:47.904Z,6.07
2018-10-06T13:58:15.372Z,5.80
2018-10-06T14:00:42.618Z,6.43
2018-10-06T14:03:10.535Z,6.10
2018-10-06T14:05:38.245Z,5.97
2018-10-06T14:08:05.561Z,5.83
2018-10-06T14:10:32.975Z,5.80
2018-10-06T14:13:00.609Z,5.53
2018-10-06T14:15:27.890Z,6.40
2018-10-06T14:17:55.458Z,6.20
2018-10-06T14:20:22.987Z,6.13
2018-10-06T14:22:50.546Z,5.47
2018-10-06T14:25:18.127Z,6.77
2018-10-06T14:27:45.847Z,5.93
2018-10-06T14:30:13.122Z,5.60
2018-10-06T14:32:43.242Z,5.47
2018-10-06T14:35:10.560Z,6.10
2018-10-06T14:37:39.542Z,5.53
2018-10-06T14:40:07.294Z,5.63
2018-10-06T14:42:34.607Z,5.30
2018-10-06T14:45:02.514Z,5.07
2018-10-06T14:47:29.935Z,5.03
2018-10-06T14:49:57.242Z,5.43
2018-10-06T14:52:25.528Z,5.77
2018-10-06T14:54:52.872Z,6.30
2018-10-06T14:57:20.439Z,5.60
2018-10-06T14:59:47.792Z,5.63
2018-10-06T15:02:15.158Z,5.50
2018-10-06T15:04:42.492Z,6.63
2018-10-06T15:07:09.884Z,6.40
2018-10-06T15:09:37.694Z,6.63
2018-10-06T15:12:05.100Z,7.00
2018-10-06T15:14:32.447Z,5.90
2018-10-06T15:17:00.258Z,6.40
2018-10-06T15:19:27.646Z,7.00
2018-10-06T15:21:55.466Z,6.43
2018-10-06T15:24:22.841Z,6.70
2018-10-06T15:26:50.573Z,6.70
2018-10-06T15:29:17.838Z,7.77
2018-10-06T15:31:45.177Z,7.57
2018-10-06T15:34:12.776Z,6.83
2018-10-06T15:36:40.430Z,7.00
2018-10-06T15:39:08.039Z,6.80
2018-10-06T15:41:35.999Z,6.93
2018-10-06T15:44:03.355Z,8.03
2018-10-06T15:46:30.670Z,6.70
2018-10-06T15:48:57.989Z,7.70
2018-10-06T15:51:25.332Z,7.43
2018-10-06T15:53:52.639Z,7.53
2018-10-06T15:56:20.347Z,7.80
2018-10-06T15:58:47.806Z,7.70
2018-10-06T16:01:15.173Z,7.00
2018-10-06T16:03:42.490Z,8.30
2018-10-06T16:06:10.158Z,7.63
2018-10-06T16:08:37.462Z,8.37
2018-10-06T16:11:05.242Z,9.00
2018-10-06T16:13:32.631Z,7.70
2018-10-06T16:16:00.194Z,8.07
2018-10-06T16:18:27.491Z,7.97
2018-10-06T16:20:54.827Z,7.90
2018-10-06T16:23:22.601Z,8.10
2018-10-06T16:25:49.963Z,7.90
2018-10-06T16:28:23.997Z,7.90
2018-10-06T16:30:51.766Z,8.23
2018-10-06T16:33:19.105Z,7.90
2018-10-06T16:35:46.650Z,8.87
2018-10-06T16:38:14.002Z,8.83
2018-10-06T16:40:41.339Z,9.20
2018-10-06T16:43:08.679Z,9.30
2018-10-06T16:45:36.250Z,9.50
2018-10-06T16:48:03.562Z,9.30
2018-10-06T16:50:31.151Z,9.40
2018-10-06T16:52:58.690Z,9.27
2018-10-06T16:55:26.004Z,9.53
2018-10-06T16:57:53.390Z,10.37
2018-10-06T17:00:20.808Z,10.07
2018-10-06T17:02:48.335Z,10.57
2018-10-06T17:05:15.888Z,9.90
2018-10-06T17:07:43.520Z,9.23
2018-10-06T17:10:10.796Z,9.70
2018-10-06T17:12:38.240Z,9.75
2018-10-06T17:15:05.988Z,9.70
2018-10-06T17:17:33.312Z,10.50
2018-10-06T17:20:00.634Z,9.98
2018-10-06T17:22:27.982Z,11.00
2018-10-06T17:24:55.323Z,11.18
2018-10-06T17:27:22.668Z,12.10
2018-10-06T17:29:50.042Z,12.00
2018-10-06T17:32:18.010Z,11.30
2018-10-06T17:34:45.345Z,10.75
2018-10-06T17:37:13.006Z,10.38
2018-10-06T17:39:40.581Z,11.05
2018-10-06T17:42:07.922Z,11.33
2018-10-06T17:44:35.266Z,11.10
2018-10-06T17:47:02.584Z,11.38
2018-10-06T17:49:30.511Z,12.33
2018-10-06T17:51:57.960Z,11.90
2018-10-06T17:54:25.298Z,11.35
2018-10-06T17:56:52.623Z,10.75
2018-10-06T17:59:19.971Z,10.35
2018-10-06T18:01:47.303Z,10.88
2018-10-06T18:04:14.706Z,10.40
2018-10-06T18:06:42.063Z,10.75
2018-10-06T18:09:09.690Z,10.90
2018-10-06T18:11:37.423Z,11.40
2018-10-06T18:14:04.770Z,11.50
2018-10-06T18:16:32.478Z,10.93
2018-10-06T18:18:59.802Z,11.73
2018-10-06T18:21:27.253Z,11.53
2018-10-06T18:23:54.617Z,11.30
2018-10-06T18:26:22.183Z,11.00
2018-10-06T18:28:49.540Z,10.40
2018-10-06T18:31:16.909Z,10.75
2018-10-06T18:33:44.219Z,10.30
2018-10-06T18:36:11.757Z,10.78
2018-10-06T18:38:39.351Z,10.58
2018-10-06T18:41:06.869Z,11.00
2018-10-06T18:43:34.652Z,14.03
2018-10-06T18:46:01.908Z,16.02
2018-10-06T18:48:29.447Z,17.70
2018-10-06T18:50:56.753Z,17.32
2018-10-06T18:53:24.307Z,18.87
2018-10-06T18:55:51.878Z,16.37
2018-10-06T18:58:19.198Z,17.75
2018-10-06T19:00:46.724Z,15.50
2018-10-06T19:03:14.081Z,14.75
2018-10-06T19:05:41.588Z,15.75
2018-10-06T19:08:08.960Z,12.47
2018-10-06T19:10:36.493Z,15.10
2018-10-06T19:13:03.823Z,11.90
2018-10-06T19:15:31.208Z,12.35
2018-10-06T19:17:58.762Z,11.63
2018-10-06T19:20:26.105Z,12.95
2018-10-06T19:22:53.441Z,11.83
2018-10-06T19:25:20.734Z,12.45
2018-10-06T19:27:48.075Z,12.05
2018-10-06T19:30:15.655Z,12.55
2018-10-06T19:32:43.060Z,11.35
2018-10-06T19:35:10.435Z,11.43
2018-10-06T19:37:37.719Z,11.25
2018-10-06T19:40:05.101Z,11.85
2018-10-06T19:42:32.396Z,10.85
2018-10-06T19:44:59.709Z,11.33
2018-10-06T19:47:27.070Z,11.65
2018-10-06T19:49:54.447Z,11.78
2018-10-06T19:52:21.892Z,10.18
2018-10-06T19:54:49.485Z,10.70
2018-10-06T19:57:16.826Z,11.12
2018-10-06T19:59:44.122Z,10.13
2018-10-06T20:02:11.477Z,11.05
2018-10-06T20:04:38.943Z,10.93
2018-10-06T20:07:06.623Z,10.08
2018-10-06T20:09:34.472Z,11.30
2018-10-06T20:12:01.781Z,11.95
2018-10-06T20:14:29.078Z,11.90
2018-10-06T20:16:56.515Z,10.88
2018-10-06T20:19:23.815Z,11.35
2018-10-06T20:21:51.216Z,10.68
2018-10-06T20:24:18.548Z,10.70
2018-10-06T20:26:46.525Z,11.80
2018-10-06T20:29:13.895Z,10.90
2018-10-06T20:31:41.496Z,10.55
2018-10-06T20:34:08.802Z,11.33
2018-10-06T20:36:36.144Z,11.40
2018-10-06T20:39:05.444Z,13.65
2018-10-06T20:41:32.970Z,11.78
2018-10-06T20:44:00.527Z,11.08
2018-10-06T20:46:27.890Z,12.28
2018-10-06T20:48:55.197Z,11.30
2018-10-06T20:51:22.519Z,12.30
2018-10-06T20:53:49.872Z,12.88
2018-10-06T20:56:17.219Z,12.80
2018-10-06T20:58:44.982Z,13.50
2018-10-06T21:01:12.918Z,12.53
2018-10-06T21:03:40.255Z,11.35
2018-10-06T21:06:07.570Z,13.10
2018-10-06T21:08:35.410Z,13.55
2018-10-06T21:11:02.806Z,11.00
2018-10-06T21:13:30.357Z,12.85
2018-10-06T21:15:57.663Z,12.13
2018-10-06T21:18:25.052Z,13.20
2018-10-06T21:20:52.351Z,13.20
2018-10-06T21:23:19.651Z,14.33
2018-10-06T21:25:47.211Z,13.72
2018-10-06T21:28:14.513Z,13.98
2018-10-06T21:30:42.107Z,17.77
2018-10-06T21:33:09.437Z,16.57
2018-10-06T21:35:37.052Z,18.12
2018-10-06T21:38:04.379Z,18.15
2018-10-06T21:40:31.674Z,16.15
2018-10-06T21:42:59.265Z,16.48
2018-10-06T21:45:26.567Z,15.68
2018-10-06T21:47:53.922Z,13.32
2018-10-06T21:50:21.229Z,13.22
2018-10-06T21:52:48.582Z,12.60
2018-10-06T21:55:16.652Z,13.65
2018-10-06T21:57:44.346Z,12.37
2018-10-06T22:00:11.707Z,13.80
2018-10-06T22:02:39.515Z,12.60
2018-10-06T22:05:07.090Z,13.18
2018-10-06T22:07:34.830Z,11.78
2018-10-06T22:10:02.450Z,13.10
2018-10-06T22:12:29.775Z,12.82
2018-10-06T22:14:57.099Z,13.18
2018-10-06T22:17:24.427Z,12.78
2018-10-06T22:19:51.776Z,13.13
2018-10-06T22:22:19.129Z,12.40
2018-10-06T22:24:46.507Z,13.05
2018-10-06T22:27:13.824Z,13.25
2018-10-06T22:29:41.152Z,13.08
2018-10-06T22:32:08.718Z,12.88
2018-10-06T22:34:36.022Z,14.00
2018-10-06T22:37:03.633Z,14.15
2018-10-06T22:39:31.819Z,13.83
2018-10-06T22:41:59.173Z,13.22
2018-10-06T22:44:26.531Z,13.00
2018-10-06T22:46:53.885Z,13.75
2018-10-06T22:49:21.450Z,13.08
2018-10-06T22:51:48.813Z,14.93
2018-10-06T22:54:16.119Z,14.10
2018-10-06T22:56:43.451Z,13.20
2018-10-06T22:59:11.272Z,13.15
2018-10-06T23:01:38.903Z,15.03
2018-10-06T23:04:06.249Z,15.08
2018-10-06T23:06:33.807Z,13.98
2018-10-06T23:09:01.369Z,15.38
2018-10-06T23:11:28.670Z,12.45
2018-10-06T23:13:57.508Z,13.18
2018-10-06T23:16:24.846Z,13.68
2018-10-06T23:18:52.999Z,13.83
2018-10-06T23:21:20.358Z,14.05
2018-10-06T23:23:47.877Z,12.78
2018-10-06T23:26:15.213Z,14.68
2018-10-06T23:28:42.760Z,14.58
2018-10-06T23:31:10.074Z,15.30
2018-10-06T23:33:37.690Z,15.60
2018-10-06T23:36:05.262Z,16.82
2018-10-06T23:38:33.022Z,17.40
2018-10-06T23:41:00.683Z,19.32
2018-10-06T23:43:27.971Z,20.80
2018-10-06T23:45:55.397Z,24.23
2018-10-06T23:48:22.708Z,23.02
2018-10-06T23:50:50.486Z,23.65
2018-10-06T23:53:17.828Z,24.37
2018-10-06T23:55:45.353Z,26.97
2018-10-06T23:58:12.671Z,26.07
